createdAt,value
2023-03-29T00:04:46.315Z,101000.69
2023-03-29T00:09:52.060Z,101005.06
2023-03-29T00:14:57.218Z,100997.34
2023-03-29T00:20:02.496Z,101010.47
2023-03-29T00:25:08.556Z,101001.88
2023-03-29T00:30:14.970Z,101008.88
2023-03-29T00:35:21.230Z,101002.63
2023-03-29T00:40:26.992Z,101009.13
2023-03-29T00:45:32.307Z,101017.28
2023-03-29T00:50:45.731Z,101019.28
2023-03-29T00:55:56.941Z,101011.47
2023-03-29T01:01:20.714Z,101020.22
2023-03-29T01:06:30.541Z,101012.69
2023-03-29T01:11:51.789Z,101022.28
2023-03-29T01:16:57.192Z,101018.00
2023-03-29T01:22:18.688Z,101015.03
2023-03-29T01:28:07.704Z,101007.38
2023-03-29T01:33:22.507Z,101006.38
2023-03-29T01:38:36.521Z,100988.53
2023-03-29T01:43:57.666Z,100993.06
2023-03-29T01:49:14.890Z,100988.94
2023-03-29T01:54:35.694Z,100987.44
2023-03-29T01:59:45.012Z,100979.44
2023-03-29T02:04:53.114Z,100999.56
2023-03-29T02:09:59.599Z,101005.19
2023-03-29T02:15:05.943Z,100973.56
2023-03-29T02:20:23.626Z,100970.91
2023-03-29T02:25:29.155Z,100966.47
2023-03-29T02:30:50.263Z,100961.16
2023-03-29T02:36:11.618Z,100973.53
2023-03-29T02:41:21.032Z,100949.13
2023-03-29T02:46:28.375Z,100951.75
2023-03-29T02:51:35.112Z,100935.88
2023-03-29T02:56:49.503Z,100938.72
2023-03-29T03:01:55.650Z,100931.88
2023-03-29T03:07:01.368Z,100929.06
2023-03-29T03:12:06.953Z,100912.66
2023-03-29T03:17:12.908Z,100924.84
2023-03-29T03:22:19.984Z,100896.81
2023-03-29T03:27:25.382Z,100909.00
2023-03-29T03:32:31.115Z,100877.63
2023-03-29T03:38:06.206Z,100865.81
2023-03-29T03:43:11.794Z,100875.25
2023-03-29T03:48:20.005Z,100856.34
2023-03-29T03:53:45.450Z,100843.81
2023-03-29T03:58:51.181Z,100827.72
2023-03-29T04:03:57.401Z,100827.19
2023-03-29T04:09:04.692Z,100822.88
2023-03-29T04:14:17.085Z,100821.44
2023-03-29T04:19:43.523Z,100810.00
2023-03-29T04:24:49.294Z,100798.19
2023-03-29T04:30:23.687Z,100786.94
2023-03-29T04:35:58.335Z,100784.06
2023-03-29T04:41:06.334Z,100793.81
2023-03-29T04:46:27.703Z,100768.38
2023-03-29T04:51:51.214Z,100768.41
2023-03-29T04:56:59.455Z,100766.53
2023-03-29T05:02:37.058Z,100744.50
2023-03-29T05:07:42.887Z,100733.72
2023-03-29T05:12:52.751Z,100728.16
2023-03-29T05:18:00.543Z,100722.19
2023-03-29T05:23:06.268Z,100705.63
2023-03-29T05:28:30.713Z,100698.88
2023-03-29T05:33:38.751Z,100696.59
2023-03-29T05:38:48.545Z,100683.88
2023-03-29T05:43:53.860Z,100681.44
2023-03-29T05:49:02.708Z,100685.53
2023-03-29T05:54:39.625Z,100664.75
2023-03-29T05:59:45.303Z,100664.41
2023-03-29T06:04:51.516Z,100656.53
2023-03-29T06:10:03.088Z,100670.00
2023-03-29T06:15:09.852Z,100632.84
2023-03-29T06:20:31.457Z,100631.91
2023-03-29T06:25:42.884Z,100626.94
2023-03-29T06:30:48.948Z,100614.34
2023-03-29T06:35:54.655Z,100603.88
2023-03-29T06:41:06.495Z,100601.31
2023-03-29T06:46:29.554Z,100594.97
2023-03-29T06:51:39.000Z,100592.31
2023-03-29T06:56:44.456Z,100585.06
2023-03-29T07:01:55.597Z,100585.94
2023-03-29T07:07:24.501Z,100576.47
2023-03-29T07:12:38.031Z,100568.41
2023-03-29T07:17:43.650Z,100564.47
2023-03-29T07:22:49.700Z,100565.00
2023-03-29T07:27:55.888Z,100562.91
2023-03-29T07:33:02.046Z,100556.34
2023-03-29T07:38:15.935Z,100549.31
2023-03-29T07:43:27.104Z,100546.88
2023-03-29T07:48:33.940Z,100543.34
2023-03-29T07:53:42.936Z,100539.00
2023-03-29T07:59:21.339Z,100529.00
2023-03-29T08:04:36.015Z,100524.94
2023-03-29T08:09:53.422Z,100515.97
2023-03-29T08:15:08.201Z,100509.22
2023-03-29T08:20:19.731Z,100505.47
2023-03-29T08:25:28.988Z,100504.91
2023-03-29T08:30:35.942Z,100499.97
2023-03-29T08:35:41.542Z,100499.63
2023-03-29T08:40:54.730Z,100499.31
2023-03-29T08:46:34.568Z,100491.16
2023-03-29T08:52:07.090Z,100489.81
2023-03-29T08:57:29.339Z,100487.41
2023-03-29T09:02:43.658Z,100489.88
2023-03-29T09:07:52.322Z,100484.22
2023-03-29T09:13:23.140Z,100482.66
2023-03-29T09:19:01.191Z,100491.91
2023-03-29T09:24:09.800Z,100496.53
2023-03-29T09:29:50.615Z,100505.38
2023-03-29T09:35:39.909Z,100495.91
2023-03-29T09:40:57.901Z,100511.44
2023-03-29T09:46:08.812Z,100496.88
2023-03-29T09:51:16.838Z,100495.19
2023-03-29T09:56:23.234Z,100494.09
2023-03-29T10:01:42.743Z,100499.06
2023-03-29T10:06:54.052Z,100503.81
2023-03-29T10:12:03.796Z,100515.44
2023-03-29T10:17:30.888Z,100507.97
2023-03-29T10:22:39.140Z,100507.94
2023-03-29T10:27:47.590Z,100518.44
2023-03-29T10:33:01.287Z,100524.34
2023-03-29T10:38:13.404Z,100528.16
2023-03-29T10:43:39.699Z,100529.47
2023-03-29T10:48:53.000Z,100524.13
2023-03-29T10:54:00.676Z,100531.16
2023-03-29T10:59:19.079Z,100536.66
2023-03-29T11:04:40.417Z,100541.13
2023-03-29T11:09:58.480Z,100549.34
2023-03-29T11:15:14.099Z,100558.31
2023-03-29T11:20:46.371Z,100565.66
2023-03-29T11:26:02.027Z,100570.09
2023-03-29T11:31:45.473Z,100569.38
2023-03-29T11:37:02.257Z,100581.00
2023-03-29T11:42:19.208Z,100585.41
2023-03-29T11:47:30.527Z,100588.78
2023-03-29T11:52:45.806Z,100584.72
2023-03-29T11:57:50.434Z,100597.16
2023-03-29T12:03:17.028Z,100599.25
2023-03-29T12:08:34.122Z,100613.97
2023-03-29T12:13:51.754Z,100616.72
2023-03-29T12:19:01.635Z,100622.41
2023-03-29T12:24:08.314Z,100634.50
2023-03-29T12:29:46.936Z,100634.78
2023-03-29T12:34:59.499Z,100635.34
2023-03-29T12:40:27.512Z,100644.41
2023-03-29T12:45:56.796Z,100645.25
2023-03-29T12:51:05.623Z,100648.56
2023-03-29T12:56:18.332Z,100657.78
2023-03-29T13:01:33.609Z,100659.41
2023-03-29T13:06:53.686Z,100659.97
2023-03-29T13:12:00.002Z,100661.22
2023-03-29T13:17:18.314Z,100665.31
2023-03-29T13:22:49.376Z,100669.19
2023-03-29T13:28:16.352Z,100673.09
2023-03-29T13:33:50.123Z,100689.06
2023-03-29T13:38:58.159Z,100686.91
2023-03-29T13:44:03.956Z,100693.44
2023-03-29T13:49:18.865Z,100711.63
2023-03-29T13:55:00.436Z,100687.16
2023-03-29T14:00:13.210Z,100680.91
2023-03-29T14:05:26.061Z,100684.38
2023-03-29T14:10:42.632Z,100688.19
2023-03-29T14:16:05.864Z,100689.69
2023-03-29T14:21:15.931Z,100687.50
2023-03-29T14:26:24.303Z,100681.91
2023-03-29T14:31:42.409Z,100682.88
2023-03-29T14:36:50.535Z,100710.88
2023-03-29T14:41:59.569Z,100691.69
2023-03-29T14:47:06.567Z,100696.13
2023-03-29T14:52:14.912Z,100714.88
2023-03-29T14:57:21.820Z,100714.16
2023-03-29T15:02:36.324Z,100705.06
2023-03-29T15:07:45.538Z,100698.19
2023-03-29T15:12:54.925Z,100677.53
2023-03-29T15:18:00.700Z,100690.72
2023-03-29T15:23:18.202Z,100695.59
2023-03-29T15:28:29.510Z,100700.25
2023-03-29T15:33:41.939Z,100718.19
2023-03-29T15:38:51.992Z,100696.63
2023-03-29T15:43:59.743Z,100699.16
2023-03-29T15:49:07.289Z,100704.75
2023-03-29T15:54:12.885Z,100701.50
2023-03-29T15:59:19.503Z,100706.84
2023-03-29T16:04:25.631Z,100709.88
2023-03-29T16:09:31.727Z,100702.59
2023-03-29T16:14:38.038Z,100706.47
2023-03-29T16:19:43.390Z,100705.81
2023-03-29T16:24:48.674Z,100710.00
2023-03-29T16:29:54.693Z,100716.75
2023-03-29T16:35:00.140Z,100721.47
2023-03-29T16:40:08.985Z,100715.22
2023-03-29T16:45:17.714Z,100715.41
2023-03-29T16:50:23.967Z,100727.22
2023-03-29T16:55:29.924Z,100717.94
2023-03-29T17:00:35.176Z,100725.47
2023-03-29T17:05:44.255Z,100723.97
2023-03-29T17:10:55.369Z,100719.00
2023-03-29T17:16:00.974Z,100710.34
2023-03-29T17:21:07.230Z,100709.03
2023-03-29T17:26:16.203Z,100705.91
2023-03-29T17:31:20.818Z,100708.44
2023-03-29T17:36:26.626Z,100703.00
2023-03-29T17:41:32.238Z,100710.47
2023-03-29T17:46:40.014Z,100708.19
2023-03-29T17:51:45.437Z,100700.56
2023-03-29T17:56:51.700Z,100707.22
2023-03-29T18:01:57.040Z,100700.94
2023-03-29T18:07:02.974Z,100706.31
2023-03-29T18:12:10.116Z,100709.97
2023-03-29T18:17:15.214Z,100707.53
2023-03-29T18:22:22.255Z,100693.81
2023-03-29T18:27:27.644Z,100707.59
2023-03-29T18:32:33.504Z,100703.94
2023-03-29T18:37:38.987Z,100704.66
2023-03-29T18:42:44.097Z,100690.41
2023-03-29T18:47:51.726Z,100697.38
2023-03-29T18:52:57.102Z,100695.91
2023-03-29T18:58:02.498Z,100710.13
2023-03-29T19:03:08.132Z,100684.63
2023-03-29T19:08:13.489Z,100693.56
2023-03-29T19:13:19.046Z,100697.22
2023-03-29T19:18:24.687Z,100685.28
2023-03-29T19:23:30.312Z,100716.44
2023-03-29T19:28:36.261Z,100686.63
2023-03-29T19:33:42.270Z,100685.47
2023-03-29T19:38:47.896Z,100704.69
2023-03-29T19:43:53.256Z,100692.44
2023-03-29T19:49:01.146Z,100687.44
2023-03-29T19:54:08.278Z,100685.13
2023-03-29T19:59:16.245Z,100686.63
2023-03-29T20:04:24.208Z,100696.03
2023-03-29T20:09:29.434Z,100692.53
2023-03-29T20:14:35.748Z,100690.06
2023-03-29T20:19:45.344Z,100693.50
2023-03-29T20:24:50.767Z,100693.34
2023-03-29T20:29:56.133Z,100702.09
2023-03-29T20:35:01.564Z,100704.56
2023-03-29T20:40:07.901Z,100709.00
2023-03-29T20:45:19.759Z,100714.09
2023-03-29T20:50:27.571Z,100748.47
2023-03-29T20:55:34.463Z,100722.09
2023-03-29T21:00:39.952Z,100724.91
2023-03-29T21:05:46.151Z,100729.97
2023-03-29T21:10:53.096Z,100720.72
2023-03-29T21:15:58.657Z,100736.75
2023-03-29T21:21:04.030Z,100757.06
2023-03-29T21:26:10.022Z,100736.75
2023-03-29T21:31:15.365Z,100737.88
2023-03-29T21:36:21.245Z,100738.13
2023-03-29T21:41:26.644Z,100751.09
2023-03-29T21:46:32.226Z,100758.38
2023-03-29T21:51:37.738Z,100789.50
2023-03-29T21:56:43.246Z,100768.81
2023-03-29T22:01:47.985Z,100778.31
2023-03-29T22:06:54.330Z,100779.22
2023-03-29T22:12:01.099Z,100773.88
2023-03-29T22:17:08.154Z,100780.41
2023-03-29T22:22:16.038Z,100790.31
2023-03-29T22:27:21.341Z,100785.78
2023-03-29T22:32:26.867Z,100803.88
2023-03-29T22:37:32.477Z,100808.91
2023-03-29T22:42:37.785Z,100807.94
2023-03-29T22:47:43.026Z,100813.06
2023-03-29T22:52:48.014Z,100819.97
2023-03-29T22:57:53.393Z,100819.91
2023-03-29T23:02:59.435Z,100821.34
2023-03-29T23:08:04.831Z,100830.88
2023-03-29T23:13:10.202Z,100832.31
2023-03-29T23:18:19.406Z,100838.75
2023-03-29T23:23:25.607Z,100849.78
2023-03-29T23:28:35.556Z,100848.25
2023-03-29T23:33:45.077Z,100853.00
2023-03-29T23:38:50.379Z,100846.28
2023-03-29T23:43:56.502Z,100878.22
2023-03-29T23:49:01.691Z,100852.66
2023-03-29T23:54:06.417Z,100853.59
2023-03-29T23:59:12.495Z,100846.88
